Time,TemperatureF,DewpointF,PressureIn,WindDirection,WindDirectionDegrees,WindSpeedMPH,WindSpeedGustMPH,Humidity,HourlyPrecipIn,Conditions,Clouds,dailyrainin,SoftwareType,DateUTC
2013-04-26 00:12:00,45.4,40.0,29.99,ESE,103,3.0,-999.0,80,-99.99,,,0.00,weatherlink.com 1.10,2013-04-26 07:12:00,
2013-04-26 00:27:00,46.0,40.0,30.00,SE,128,7.0,-999.0,79,-99.99,,,0.00,weatherlink.com 1.10,2013-04-26 07:27:00,
2013-04-26 00:42:00,45.1,40.0,29.99,East,95,7.0,-999.0,83,-99.99,,,0.00,weatherlink.com 1.10,2013-04-26 07:42:00,
2013-04-26 00:57:00,45.2,41.0,29.99,East,100,4.0,-999.0,84,-99.99,,,0.00,weatherlink.com 1.10,2013-04-26 07:57:00,
2013-04-26 01:12:00,45.1,41.0,29.99,SSE,168,9.0,-999.0,85,-99.99,,,0.00,weatherlink.com 1.10,2013-04-26 08:12:00,
2013-04-26 01:27:00,45.1,41.0,29.98,ESE,107,4.0,-999.0,85,-99.99,,,0.00,weatherlink.com 1.10,2013-04-26 08:27:00,
2013-04-26 01:42:00,44.7,41.0,29.97,ESE,119,6.0,-999.0,87,-99.99,,,0.00,weatherlink.com 1.10,2013-04-26 08:42:00,
2013-04-26 01:57:00,44.4,41.0,29.97,SSE,150,7.0,-999.0,88,-99.99,,,0.00,weatherlink.com 1.10,2013-04-26 08:57:00,
2013-04-26 02:12:00,44.2,42.0,29.98,East,97,6.0,-999.0,90,-99.99,,,0.00,weatherlink.com 1.10,2013-04-26 09:12:00,
2013-04-26 02:31:00,44.2,42.0,29.99,SW,230,4.0,-999.0,90,-99.99,,,0.00,weatherlink.com 1.10,2013-04-26 09:31:00,
2013-04-26 02:41:00,44.5,42.0,29.99,SSE,162,3.0,-999.0,90,-99.99,,,0.00,weatherlink.com 1.10,2013-04-26 09:41:00,
2013-04-26 02:56:00,44.1,41.0,29.98,South,176,2.0,-999.0,90,-99.99,,,0.00,weatherlink.com 1.10,2013-04-26 09:56:00,
2013-04-26 03:11:00,43.4,41.0,29.98,ESE,123,6.0,-999.0,90,-99.99,,,0.00,weatherlink.com 1.10,2013-04-26 10:11:00,
2013-04-26 03:26:00,43.2,41.0,30.00,ESE,121,6.0,-999.0,92,-99.99,,,0.00,weatherlink.com 1.10,2013-04-26 10:26:00,
2013-04-26 03:41:00,43.0,41.0,30.00,SSE,148,3.0,-999.0,92,-99.99,,,0.00,weatherlink.com 1.10,2013-04-26 10:41:00,
2013-04-26 03:56:00,42.8,41.0,30.00,SE,136,2.0,-999.0,92,-99.99,,,0.00,weatherlink.com 1.10,2013-04-26 10:56:00,
2013-04-26 04:11:00,42.8,41.0,30.00,SE,134,5.0,-999.0,92,-99.99,,,0.00,weatherlink.com 1.10,2013-04-26 11:11:00,
2013-04-26 04:27:00,42.5,40.0,30.02,SSE,151,2.0,-999.0,92,-99.99,,,0.00,weatherlink.com 1.10,2013-04-26 11:27:00,
2013-04-26 04:41:00,42.2,40.0,30.02,SSE,148,2.0,-999.0,92,-99.99,,,0.00,weatherlink.com 1.10,2013-04-26 11:41:00,
2013-04-26 04:56:00,42.0,40.0,30.02,SSE,147,0.0,-999.0,93,-99.99,,,0.00,weatherlink.com 1.10,2013-04-26 11:56:00,
2013-04-26 05:11:00,42.2,41.0,30.02,SSE,147,2.0,-999.0,94,-99.99,,,0.00,weatherlink.com 1.10,2013-04-26 12:11:00,
2013-04-26 05:26:00,42.5,40.0,30.02,SE,124,1.0,-999.0,92,-99.99,,,0.00,weatherlink.com 1.10,2013-04-26 12:26:00,
2013-04-26 05:41:00,42.0,40.0,30.02,SE,127,0.0,-999.0,94,-99.99,,,0.00,weatherlink.com 1.10,2013-04-26 12:41:00,
2013-04-26 05:56:00,42.2,41.0,30.02,SSE,167,1.0,-999.0,94,-99.99,,,0.00,weatherlink.com 1.10,2013-04-26 12:56:00,
2013-04-26 06:11:00,42.2,41.0,30.03,SSE,165,0.0,-999.0,94,-99.99,,,0.00,weatherlink.com 1.10,2013-04-26 13:11:00,
2013-04-26 06:26:00,42.4,41.0,30.05,SSE,164,0.0,-999.0,94,-99.99,,,0.00,weatherlink.com 1.10,2013-04-26 13:26:00,
2013-04-26 06:41:00,43.2,41.0,30.06,ESE,117,0.0,-999.0,93,-99.99,,,0.00,weatherlink.com 1.10,2013-04-26 13:41:00,
2013-04-26 06:56:00,44.0,40.0,30.05,ESE,116,0.0,-999.0,86,-99.99,,,0.00,weatherlink.com 1.10,2013-04-26 13:56:00,
2013-04-26 07:11:00,45.0,40.0,30.06,East,100,0.0,-999.0,82,-99.99,,,0.00,weatherlink.com 1.10,2013-04-26 14:11:00,
2013-04-26 07:26:00,46.4,40.0,30.08,ESE,113,2.0,-999.0,78,-99.99,,,0.00,weatherlink.com 1.10,2013-04-26 14:26:00,
2013-04-26 07:41:00,47.7,41.0,30.07,SSE,150,1.0,-999.0,77,-99.99,,,0.00,weatherlink.com 1.10,2013-04-26 14:41:00,
2013-04-26 07:56:00,49.2,42.0,30.08,South,171,0.0,-999.0,76,-99.99,,,0.00,weatherlink.com 1.10,2013-04-26 14:56:00,
2013-04-26 08:11:00,50.4,43.0,30.07,ESE,104,2.0,-999.0,75,-99.99,,,0.00,weatherlink.com 1.10,2013-04-26 15:11:00,
2013-04-26 08:26:00,51.3,43.0,30.06,ESE,106,0.0,-999.0,73,-99.99,,,0.00,weatherlink.com 1.10,2013-04-26 15:26:00,
2013-04-26 08:41:00,53.1,43.0,30.07,ENE,66,0.0,-999.0,68,-99.99,,,0.00,weatherlink.com 1.10,2013-04-26 15:41:00,
2013-04-26 08:56:00,54.5,42.0,30.06,ENE,66,2.0,-999.0,64,-99.99,,,0.00,weatherlink.com 1.10,2013-04-26 15:56:00,
2013-04-26 09:12:00,56.0,43.0,30.05,NE,51,2.0,-999.0,62,-99.99,,,0.00,weatherlink.com 1.10,2013-04-26 16:12:00,
2013-04-26 09:26:00,56.0,43.0,30.05,NE,49,0.0,-999.0,62,-99.99,,,0.00,weatherlink.com 1.10,2013-04-26 16:26:00,
2013-04-26 09:41:00,57.2,43.0,30.06,NE,49,0.0,-999.0,59,-99.99,,,0.00,weatherlink.com 1.10,2013-04-26 16:41:00,
2013-04-26 09:56:00,58.1,41.0,30.05,ENE,68,2.0,-999.0,54,-99.99,,,0.00,weatherlink.com 1.10,2013-04-26 16:56:00,
2013-04-26 10:11:00,58.9,45.0,30.04,ENE,61,0.0,-999.0,60,-99.99,,,0.00,weatherlink.com 1.10,2013-04-26 17:11:00,
2013-04-26 10:26:00,59.6,45.0,30.05,ENE,59,1.0,-999.0,58,-99.99,,,0.00,weatherlink.com 1.10,2013-04-26 17:26:00,
2013-04-26 10:41:00,60.5,46.0,30.05,ENE,58,3.0,-999.0,60,-99.99,,,0.00,weatherlink.com 1.10,2013-04-26 17:41:00,
2013-04-26 10:56:00,61.4,45.0,30.05,WNW,282,0.0,-999.0,56,-99.99,,,0.00,weatherlink.com 1.10,2013-04-26 17:56:00,
2013-04-26 11:12:00,61.4,45.0,30.05,West,278,0.0,-999.0,56,-99.99,,,0.00,weatherlink.com 1.10,2013-04-26 18:12:00,
2013-04-26 11:26:00,62.1,46.0,30.06,SW,224,1.0,-999.0,57,-99.99,,,0.00,weatherlink.com 1.10,2013-04-26 18:26:00,
2013-04-26 11:41:00,62.4,44.0,30.05,West,265,0.0,-999.0,51,-99.99,,,0.00,weatherlink.com 1.10,2013-04-26 18:41:00,
2013-04-26 11:56:00,63.3,44.0,30.05,NNE,14,0.0,-999.0,49,-99.99,,,0.00,weatherlink.com 1.10,2013-04-26 18:56:00,
2013-04-26 12:11:00,62.9,45.0,30.05,West,271,0.0,-999.0,52,-99.99,,,0.00,weatherlink.com 1.10,2013-04-26 19:11:00,
2013-04-26 12:27:00,63.5,44.0,30.05,SW,224,2.0,-999.0,50,-99.99,,,0.00,weatherlink.com 1.10,2013-04-26 19:27:00,
2013-04-26 12:41:00,62.5,45.0,30.05,West,275,1.0,-999.0,53,-99.99,,,0.00,weatherlink.com 1.10,2013-04-26 19:41:00,
2013-04-26 12:56:00,62.7,46.0,30.05,West,265,1.0,-999.0,55,-99.99,,,0.00,weatherlink.com 1.10,2013-04-26 19:56:00,
2013-04-26 13:11:00,64.3,47.0,30.05,WNW,284,0.0,-999.0,54,-99.99,,,0.00,weatherlink.com 1.10,2013-04-26 20:11:00,
2013-04-26 13:26:00,64.0,46.0,30.05,West,280,5.0,-999.0,53,-99.99,,,0.00,weatherlink.com 1.10,2013-04-26 20:26:00,
2013-04-26 13:41:00,63.8,47.0,30.05,NE,49,0.0,-999.0,55,-99.99,,,0.00,weatherlink.com 1.10,2013-04-26 20:41:00,
2013-04-26 13:56:00,61.8,48.0,30.05,NE,51,2.0,-999.0,60,-99.99,,,0.00,weatherlink.com 1.10,2013-04-26 20:56:00,
2013-04-26 14:11:00,61.6,46.0,30.06,WNW,285,2.0,-999.0,58,-99.99,,,0.00,weatherlink.com 1.10,2013-04-26 21:11:00,
2013-04-26 14:26:00,62.9,49.0,30.06,North,10,0.0,-999.0,61,-99.99,,,0.00,weatherlink.com 1.10,2013-04-26 21:26:00,
2013-04-26 14:41:00,64.0,48.0,30.05,SSE,168,0.0,-999.0,57,-99.99,,,0.00,weatherlink.com 1.10,2013-04-26 21:41:00,
2013-04-26 14:56:00,64.8,48.0,30.04,WNW,294,1.0,-999.0,55,-99.99,,,0.00,weatherlink.com 1.10,2013-04-26 21:56:00,
2013-04-26 15:11:00,61.9,47.0,30.04,ESE,119,3.0,-999.0,58,-99.99,,,0.00,weatherlink.com 1.10,2013-04-26 22:11:00,
2013-04-26 15:26:00,62.1,47.0,30.06,North,350,3.0,-999.0,58,-99.99,,,0.00,weatherlink.com 1.10,2013-04-26 22:26:00,
2013-04-26 15:41:00,62.1,47.0,30.06,East,79,0.0,-999.0,58,-99.99,,,0.00,weatherlink.com 1.10,2013-04-26 22:41:00,
2013-04-26 15:57:00,60.7,47.0,30.05,East,85,0.0,-999.0,62,-99.99,,,0.00,weatherlink.com 1.10,2013-04-26 22:57:00,
2013-04-26 16:11:00,60.4,47.0,30.06,NE,51,0.0,-999.0,61,-99.99,,,0.00,weatherlink.com 1.10,2013-04-26 23:11:00,
2013-04-26 16:26:00,62.1,48.0,30.07,North,0,0.0,-999.0,60,-99.99,,,0.00,weatherlink.com 1.10,2013-04-26 23:26:00,
2013-04-26 16:41:00,61.8,48.0,30.05,East,88,0.0,-999.0,61,-99.99,,,0.00,weatherlink.com 1.10,2013-04-26 23:41:00,
2013-04-26 17:13:00,60.8,47.0,30.07,NNW,346,0.0,-999.0,61,-99.99,,,0.00,weatherlink.com 1.10,2013-04-27 00:13:00,
2013-04-26 17:26:00,59.6,46.0,30.07,NE,41,0.0,-999.0,62,-99.99,,,0.00,weatherlink.com 1.10,2013-04-27 00:26:00,
2013-04-26 17:41:00,59.2,46.0,30.07,SW,220,1.0,-999.0,63,-99.99,,,0.00,weatherlink.com 1.10,2013-04-27 00:41:00,
2013-04-26 17:56:00,59.2,46.0,30.07,North,357,3.0,-999.0,63,-99.99,,,0.00,weatherlink.com 1.10,2013-04-27 00:56:00,
2013-04-26 18:11:00,57.9,46.0,30.08,NE,38,3.0,-999.0,65,-99.99,,,0.00,weatherlink.com 1.10,2013-04-27 01:11:00,
2013-04-26 18:26:00,57.1,44.0,30.07,North,352,3.0,-999.0,62,-99.99,,,0.00,weatherlink.com 1.10,2013-04-27 01:26:00,
2013-04-26 18:41:00,56.3,43.0,30.09,North,357,2.0,-999.0,61,-99.99,,,0.00,weatherlink.com 1.10,2013-04-27 01:41:00,
2013-04-26 18:56:00,55.6,43.0,30.09,NE,47,3.0,-999.0,64,-99.99,,,0.00,weatherlink.com 1.10,2013-04-27 01:56:00,
2013-04-26 19:11:00,53.8,43.0,30.10,SE,144,1.0,-999.0,68,-99.99,,,0.00,weatherlink.com 1.10,2013-04-27 02:11:00,
2013-04-26 19:26:00,53.1,44.0,30.07,NE,45,2.0,-999.0,71,-99.99,,,0.00,weatherlink.com 1.10,2013-04-27 02:26:00,
2013-04-26 19:41:00,52.6,43.0,30.09,NNE,21,3.0,-999.0,71,-99.99,,,0.00,weatherlink.com 1.10,2013-04-27 02:41:00,
2013-04-26 19:56:00,52.3,44.0,30.09,NNE,32,5.0,-999.0,72,-99.99,,,0.00,weatherlink.com 1.10,2013-04-27 02:56:00,
2013-04-26 20:11:00,52.3,43.0,30.09,North,10,3.0,-999.0,71,-99.99,,,0.00,weatherlink.com 1.10,2013-04-27 03:11:00,
2013-04-26 20:26:00,52.2,43.0,30.07,NNE,20,2.0,-999.0,72,-99.99,,,0.00,weatherlink.com 1.10,2013-04-27 03:26:00,
2013-04-26 20:41:00,52.0,42.0,30.07,NNW,346,3.0,-999.0,70,-99.99,,,0.00,weatherlink.com 1.10,2013-04-27 03:41:00,
2013-04-26 20:56:00,52.0,43.0,30.07,North,359,3.0,-999.0,71,-99.99,,,0.00,weatherlink.com 1.10,2013-04-27 03:56:00,
2013-04-26 21:11:00,51.7,43.0,30.08,NE,45,1.0,-999.0,72,-99.99,,,0.00,weatherlink.com 1.10,2013-04-27 04:11:00,
2013-04-26 21:26:00,50.5,43.0,30.06,SSE,157,1.0,-999.0,74,-99.99,,,0.00,weatherlink.com 1.10,2013-04-27 04:26:00,
2013-04-26 21:41:00,49.8,43.0,30.08,SE,143,6.0,-999.0,77,-99.99,,,0.00,weatherlink.com 1.10,2013-04-27 04:41:00,
2013-04-26 21:56:00,50.1,43.0,30.08,East,82,0.0,-999.0,77,-99.99,,,0.00,weatherlink.com 1.10,2013-04-27 04:56:00,
2013-04-26 22:11:00,50.8,43.0,30.08,ESE,110,0.0,-999.0,75,-99.99,,,0.00,weatherlink.com 1.10,2013-04-27 05:11:00,
2013-04-26 22:26:00,50.4,43.0,30.06,North,7,1.0,-999.0,76,-99.99,,,0.00,weatherlink.com 1.10,2013-04-27 05:26:00,
2013-04-26 22:41:00,50.5,43.0,30.06,ESE,114,0.0,-999.0,74,-99.99,,,0.00,weatherlink.com 1.10,2013-04-27 05:41:00,
2013-04-26 22:56:00,50.7,42.0,30.07,ESE,113,0.0,-999.0,72,-99.99,,,0.00,weatherlink.com 1.10,2013-04-27 05:56:00,
2013-04-26 23:11:00,50.8,42.0,30.06,SE,126,0.0,-999.0,73,-99.99,,,0.00,weatherlink.com 1.10,2013-04-27 06:11:00,
2013-04-26 23:26:00,51.4,42.0,30.05,NW,316,0.0,-999.0,71,-99.99,,,0.00,weatherlink.com 1.10,2013-04-27 06:26:00,
2013-04-26 23:41:00,51.4,42.0,30.05,NNW,346,2.0,-999.0,70,-99.99,,,0.00,weatherlink.com 1.10,2013-04-27 06:41:00,
2013-04-26 23:56:00,51.7,43.0,30.05,ENE,66,0.0,-999.0,72,-99.99,,,0.00,weatherlink.com 1.10,2013-04-27 06:56:00,